Terminal Aerodrome Forecast
Issued by NWS

Home | Current Version | Previous Version | Text Only | Print | Product List | Glossary On
Versions: 1 2 3 4 5 6 7 8 9 10 11 12 13 14 15 16 17 18 19 20 21 22 23 24 25 26 27 28 29 30 31 32 33 34 35 36 37 38 39 40 41 42 43 44 45 46 47 48 49 50
062
FTUS43 KPAH 182051 AAA
TAFOWB
TAF AMD
KOWB 182051Z 1821/1918 VRB20G45KT 1/2SM +TSRA OVC010CB
     FM182115 31021G35KT P6SM BKN025
     FM190400 30017G27KT P6SM SCT035
     FM190800 30012G22KT P6SM FEW150=

USA.gov is the U.S. government's official web portal to all federal, state and local government web resources and services.